Low Mountain, Arizona
Current Conditions -  °F | °C
As of 10:53 AM on Monday 24 Nov 2014 (Local Time) from KGUP Reporting Station
Clear Clear  
Wind Chill: 28°   Ceiling: Unl
Heat Index: 34°   Visibility: 10mi
Dew Point:   Wind: 7mph
Humidity: 27%   Direction: 230°SW
Pressure: 30.21"   Gusts: NA
Location:  36.1012°N, 109.584°W
Report Text: KGUP 241753Z AUTO 23006KT 10SM CLR 01/M16 A3021 RMK AO2 SLP270 T00111161 10011 21144 50007
Loading
Personal Weather Stations






























Interactive Weather Map New forecast layout! Learn more

10-Day Weather Forecast

Advertisements
Track Severe Weather on mobile